createdAt,value
2023-02-05T00:01:24.666Z,58.54
2023-02-05T00:03:51.308Z,59.43
2023-02-05T00:06:18.091Z,58.91
2023-02-05T00:08:44.744Z,58.89
2023-02-05T00:11:11.401Z,58.63
2023-02-05T00:13:39.678Z,59.06
2023-02-05T00:16:16.930Z,58.53
2023-02-05T00:18:44.269Z,58.98
2023-02-05T00:21:11.876Z,58.83
2023-02-05T00:23:39.477Z,59.86
2023-02-05T00:26:07.033Z,59.47
2023-02-05T00:28:36.802Z,59.53
2023-02-05T00:31:16.117Z,59.41
2023-02-05T00:33:43.156Z,59.32
2023-02-05T00:36:12.675Z,59.27
2023-02-05T00:38:40.730Z,59.27
2023-02-05T00:41:07.525Z,59.54
2023-02-05T00:43:34.249Z,59.69
2023-02-05T00:46:00.925Z,59.53
2023-02-05T00:48:27.624Z,59.77
2023-02-05T00:50:54.582Z,59.90
2023-02-05T00:53:22.410Z,59.12
2023-02-05T00:55:49.064Z,60.31
2023-02-05T00:58:16.038Z,59.98
2023-02-05T01:00:43.125Z,60.26
2023-02-05T01:03:10.022Z,60.00
2023-02-05T01:05:38.142Z,60.01
2023-02-05T01:08:06.260Z,60.36
2023-02-05T01:10:33.083Z,60.58
2023-02-05T01:12:59.949Z,60.74
2023-02-05T01:15:26.776Z,60.41
2023-02-05T01:17:53.341Z,60.90
2023-02-05T01:20:20.513Z,60.26
2023-02-05T01:22:47.551Z,60.84
2023-02-05T01:25:14.096Z,60.66
2023-02-05T01:27:40.691Z,60.22
2023-02-05T01:30:08.006Z,60.79
2023-02-05T01:32:35.600Z,60.55
2023-02-05T01:35:02.157Z,60.47
2023-02-05T01:37:28.726Z,60.49
2023-02-05T01:39:55.502Z,61.19
2023-02-05T01:42:31.784Z,60.87
2023-02-05T01:45:23.395Z,61.01
2023-02-05T01:47:58.008Z,61.06
2023-02-05T01:50:43.012Z,61.02
2023-02-05T01:53:13.649Z,61.23
2023-02-05T01:55:57.294Z,60.96
2023-02-05T01:58:27.620Z,61.32
2023-02-05T02:00:54.936Z,61.41
2023-02-05T02:03:24.589Z,61.30
2023-02-05T02:05:51.177Z,62.54
2023-02-05T02:08:17.770Z,61.65
2023-02-05T02:10:46.224Z,62.60
2023-02-05T02:13:13.320Z,61.97
2023-02-05T02:15:41.104Z,62.19
2023-02-05T02:18:27.708Z,61.88
2023-02-05T02:21:19.742Z,62.95
2023-02-05T02:24:01.214Z,62.07
2023-02-05T02:26:58.721Z,62.88
2023-02-05T02:29:51.152Z,63.05
2023-02-05T02:32:39.056Z,62.73
2023-02-05T02:35:11.685Z,63.44
2023-02-05T02:37:45.945Z,62.67
2023-02-05T02:40:18.490Z,62.95
2023-02-05T02:42:58.812Z,62.91
2023-02-05T02:45:29.256Z,62.84
2023-02-05T02:47:58.669Z,63.52
2023-02-05T02:50:32.932Z,63.18
2023-02-05T02:53:13.711Z,63.19
2023-02-05T02:55:43.762Z,63.05
2023-02-05T02:58:16.795Z,63.58
2023-02-05T03:00:46.016Z,63.64
2023-02-05T03:03:16.832Z,63.83
2023-02-05T03:05:45.887Z,63.61
2023-02-05T03:08:28.388Z,64.09
2023-02-05T03:11:04.988Z,63.79
2023-02-05T03:13:32.335Z,63.82
2023-02-05T03:15:59.060Z,64.49
2023-02-05T03:18:25.747Z,65.23
2023-02-05T03:20:56.763Z,65.57
2023-02-05T03:23:26.116Z,64.93
2023-02-05T03:25:52.652Z,65.17
2023-02-05T03:28:19.557Z,64.52
2023-02-05T03:31:00.615Z,65.58
2023-02-05T03:33:54.524Z,65.36
2023-02-05T03:36:34.801Z,64.99
2023-02-05T03:39:22.894Z,65.42
2023-02-05T03:42:10.927Z,65.10
2023-02-05T03:45:05.707Z,64.53
2023-02-05T03:47:44.188Z,64.94
2023-02-05T03:50:16.729Z,64.48
2023-02-05T03:52:50.778Z,64.39
2023-02-05T03:55:41.272Z,64.39
2023-02-05T03:58:15.090Z,64.55
2023-02-05T04:00:42.461Z,64.59
2023-02-05T04:03:09.208Z,64.87
2023-02-05T04:05:36.385Z,64.88
2023-02-05T04:08:03.294Z,64.84
2023-02-05T04:10:29.851Z,64.57
2023-02-05T04:12:56.415Z,64.41
2023-02-05T04:15:23.676Z,64.09
2023-02-05T04:17:50.248Z,64.38
2023-02-05T04:20:17.015Z,64.19
2023-02-05T04:22:43.715Z,63.63
2023-02-05T04:25:10.261Z,64.17
2023-02-05T04:27:36.830Z,63.70
2023-02-05T04:30:03.552Z,64.02
2023-02-05T04:32:30.108Z,64.01
2023-02-05T04:34:56.679Z,64.07
2023-02-05T04:37:25.017Z,63.66
2023-02-05T04:39:51.807Z,63.55
2023-02-05T04:42:18.376Z,63.53
2023-02-05T04:44:44.924Z,63.22
2023-02-05T04:47:12.900Z,63.56
2023-02-05T04:49:40.840Z,63.24
2023-02-05T04:52:08.158Z,63.36
2023-02-05T04:54:36.016Z,63.38
2023-02-05T04:57:02.576Z,62.86
2023-02-05T04:59:30.366Z,62.98
2023-02-05T05:01:57.608Z,62.92
2023-02-05T05:04:24.198Z,63.16
2023-02-05T05:06:50.789Z,63.91
2023-02-05T05:09:17.477Z,64.03
2023-02-05T05:11:43.990Z,63.83
2023-02-05T05:14:10.757Z,63.20
2023-02-05T05:16:37.355Z,63.49
2023-02-05T05:19:04.522Z,63.37
2023-02-05T05:21:31.179Z,63.06
2023-02-05T05:23:57.718Z,63.89
2023-02-05T05:26:24.436Z,62.96
2023-02-05T05:28:55.339Z,62.95
2023-02-05T05:31:22.411Z,63.64
2023-02-05T05:33:49.061Z,63.88
2023-02-05T05:36:16.827Z,63.64
2023-02-05T05:38:44.130Z,64.18
2023-02-05T05:41:38.238Z,63.13
2023-02-05T05:44:04.904Z,63.54
2023-02-05T05:46:31.537Z,63.76
2023-02-05T05:49:00.251Z,63.75
2023-02-05T05:51:28.757Z,63.22
2023-02-05T05:53:55.839Z,63.08
2023-02-05T05:56:23.447Z,63.22
2023-02-05T05:58:50.824Z,62.85
2023-02-05T06:01:20.431Z,63.90
2023-02-05T06:03:47.058Z,63.36
2023-02-05T06:06:13.805Z,63.51
2023-02-05T06:08:40.801Z,63.31
2023-02-05T06:11:07.645Z,63.72
2023-02-05T06:13:34.979Z,63.18
2023-02-05T06:16:01.723Z,62.97
2023-02-05T06:18:28.397Z,63.24
2023-02-05T06:20:54.940Z,62.95
2023-02-05T06:23:21.764Z,63.54
2023-02-05T06:25:48.436Z,63.54
2023-02-05T06:28:15.119Z,62.94
2023-02-05T06:30:41.721Z,62.14
2023-02-05T06:33:08.336Z,62.41
2023-02-05T06:35:36.651Z,62.29
2023-02-05T06:38:03.384Z,62.00
2023-02-05T06:40:30.120Z,61.50
2023-02-05T06:42:56.690Z,61.14
2023-02-05T06:45:23.348Z,61.38
2023-02-05T06:47:52.756Z,61.42
2023-02-05T06:50:20.164Z,60.77
2023-02-05T06:52:46.758Z,60.65
2023-02-05T06:55:13.450Z,60.03
2023-02-05T06:57:40.044Z,60.21
2023-02-05T07:00:07.304Z,60.42
2023-02-05T07:02:34.371Z,58.56
2023-02-05T07:05:01.038Z,59.08
2023-02-05T07:07:28.349Z,58.35
2023-02-05T07:09:55.081Z,58.18
2023-02-05T07:12:22.359Z,57.94
2023-02-05T07:14:48.938Z,57.75
2023-02-05T07:17:15.726Z,57.69
2023-02-05T07:19:42.314Z,57.86
2023-02-05T07:22:09.191Z,57.00
2023-02-05T07:24:35.732Z,56.89
2023-02-05T07:27:02.315Z,56.74
2023-02-05T07:29:28.977Z,56.57
2023-02-05T07:31:55.569Z,56.73
2023-02-05T07:34:22.157Z,55.44
2023-02-05T07:36:52.664Z,56.13
2023-02-05T07:39:19.787Z,57.03
2023-02-05T07:41:46.612Z,56.30
2023-02-05T07:44:13.273Z,56.80
2023-02-05T07:46:40.178Z,56.31
2023-02-05T07:49:07.162Z,56.48
2023-02-05T07:51:35.359Z,56.07
2023-02-05T07:54:06.513Z,55.76
2023-02-05T07:56:33.167Z,55.27
2023-02-05T07:58:59.767Z,55.23
2023-02-05T08:01:26.411Z,54.56
2023-02-05T08:03:53.023Z,54.96
2023-02-05T08:06:19.606Z,55.06
2023-02-05T08:08:46.148Z,56.78
2023-02-05T08:11:17.796Z,57.00
2023-02-05T08:13:46.051Z,56.57
2023-02-05T08:16:15.757Z,53.56
2023-02-05T08:18:43.074Z,54.43
2023-02-05T08:21:09.647Z,54.05
2023-02-05T08:23:36.306Z,54.97
2023-02-05T08:26:02.887Z,53.88
2023-02-05T08:28:31.916Z,53.39
2023-02-05T08:30:58.743Z,53.14
2023-02-05T08:33:25.724Z,52.61
2023-02-05T08:35:52.500Z,51.84
2023-02-05T08:38:19.057Z,50.12
2023-02-05T08:40:45.681Z,50.95
2023-02-05T08:43:12.340Z,50.46
2023-02-05T08:45:39.413Z,49.87
2023-02-05T08:48:06.134Z,48.86
2023-02-05T08:50:32.745Z,49.32
2023-02-05T08:52:59.279Z,48.07
2023-02-05T08:55:25.847Z,48.71
2023-02-05T08:57:52.996Z,47.79
2023-02-05T09:00:21.122Z,47.12
2023-02-05T09:02:47.713Z,45.58
2023-02-05T09:05:14.307Z,47.30
2023-02-05T09:07:41.642Z,46.53
2023-02-05T09:10:13.019Z,47.31
2023-02-05T09:12:40.036Z,46.66
2023-02-05T09:15:07.791Z,43.32
2023-02-05T09:17:34.469Z,44.83
2023-02-05T09:20:01.251Z,40.78
2023-02-05T09:22:27.814Z,43.61
2023-02-05T09:24:54.409Z,42.79
2023-02-05T09:27:20.996Z,42.45
2023-02-05T09:29:47.583Z,38.84
2023-02-05T09:32:14.267Z,34.70
2023-02-05T09:34:40.962Z,35.05
2023-02-05T09:37:07.511Z,34.81
2023-02-05T09:40:17.678Z,35.56
2023-02-05T09:42:40.498Z,36.17
2023-02-05T09:45:20.577Z,36.74
2023-02-05T09:47:57.956Z,37.15
2023-02-05T09:50:29.814Z,37.47
2023-02-05T09:53:01.803Z,37.98
2023-02-05T09:55:31.413Z,38.72
2023-02-05T09:58:06.408Z,38.52
2023-02-05T10:00:51.480Z,38.99
2023-02-05T10:03:17.870Z,38.32
2023-02-05T10:06:10.423Z,38.36
2023-02-05T10:08:51.908Z,39.86
2023-02-05T10:11:37.897Z,38.69
2023-02-05T10:14:31.356Z,38.92
2023-02-05T10:17:00.953Z,38.65
2023-02-05T10:19:40.420Z,39.10
2023-02-05T10:22:54.658Z,41.45
2023-02-05T10:25:33.721Z,39.49
2023-02-05T10:28:09.649Z,42.46
2023-02-05T10:30:36.213Z,38.63
2023-02-05T10:33:14.051Z,37.40
2023-02-05T10:35:56.326Z,33.76
2023-02-05T10:38:24.742Z,35.08
2023-02-05T10:41:00.227Z,35.40
2023-02-05T10:43:39.262Z,35.67
2023-02-05T10:46:12.298Z,35.35
2023-02-05T10:49:01.414Z,36.95
2023-02-05T10:51:42.238Z,36.91
2023-02-05T10:54:30.295Z,37.33
2023-02-05T10:56:59.103Z,36.81
2023-02-05T10:59:31.318Z,37.04
2023-02-05T11:02:03.800Z,38.44
2023-02-05T11:04:44.841Z,37.37
2023-02-05T11:07:14.622Z,33.20
2023-02-05T11:09:42.368Z,33.43
2023-02-05T11:12:29.249Z,34.53
2023-02-05T11:15:01.765Z,32.14
2023-02-05T11:17:33.821Z,30.85
2023-02-05T11:20:04.535Z,31.64
2023-02-05T11:22:35.236Z,32.76
2023-02-05T11:25:18.678Z,29.36
2023-02-05T11:28:04.951Z,29.12
2023-02-05T11:33:24.445Z,28.51
2023-02-05T11:35:53.918Z,28.24
2023-02-05T11:38:47.097Z,29.46
2023-02-05T11:41:26.597Z,30.17
2023-02-05T11:43:53.918Z,30.81
2023-02-05T11:46:27.932Z,28.11
2023-02-05T11:49:05.078Z,27.24
2023-02-05T11:51:45.820Z,29.24
2023-02-05T11:54:19.443Z,32.86
2023-02-05T11:57:24.982Z,31.04
2023-02-05T11:59:56.022Z,30.83
2023-02-05T12:02:28.783Z,24.96
2023-02-05T12:05:19.251Z,24.91
2023-02-05T12:07:52.498Z,25.09
2023-02-05T12:10:31.109Z,25.96
2023-02-05T12:13:24.490Z,25.02
2023-02-05T12:15:56.076Z,25.30
2023-02-05T12:18:37.983Z,24.12
2023-02-05T12:21:23.659Z,23.09
2023-02-05T12:24:05.372Z,23.91
2023-02-05T12:26:45.240Z,24.73
2023-02-05T12:29:45.028Z,24.69
2023-02-05T12:32:21.199Z,23.21
2023-02-05T12:35:12.717Z,22.13
2023-02-05T12:38:05.401Z,21.44
2023-02-05T12:40:50.646Z,20.93
2023-02-05T12:43:29.228Z,21.77
2023-02-05T12:45:58.720Z,20.18
2023-02-05T12:48:47.443Z,20.25
2023-02-05T12:51:35.301Z,19.63
2023-02-05T12:54:17.573Z,21.80
2023-02-05T12:56:59.339Z,19.32
2023-02-05T12:59:40.887Z,19.83
2023-02-05T13:02:16.171Z,20.67
2023-02-05T13:04:49.289Z,21.69
2023-02-05T13:07:30.716Z,21.38
2023-02-05T13:10:06.795Z,22.07
2023-02-05T13:12:38.485Z,22.48
2023-02-05T13:15:25.345Z,22.70
2023-02-05T13:18:22.423Z,22.07
2023-02-05T13:21:15.960Z,22.65
2023-02-05T13:24:03.482Z,23.08
2023-02-05T13:26:58.805Z,23.53
2023-02-05T13:29:30.337Z,21.80
2023-02-05T13:32:15.977Z,21.73
2023-02-05T13:34:43.216Z,21.45
2023-02-05T13:37:32.726Z,20.77
2023-02-05T13:40:17.344Z,19.61
2023-02-05T13:42:50.775Z,20.16
2023-02-05T13:45:52.631Z,20.72
2023-02-05T13:49:08.951Z,19.44
2023-02-05T13:51:38.958Z,20.37
2023-02-05T13:54:39.153Z,19.44
2023-02-05T13:57:27.551Z,18.66
2023-02-05T13:59:54.788Z,19.06
2023-02-05T14:02:38.206Z,19.19
2023-02-05T14:05:06.253Z,20.95
2023-02-05T14:07:46.744Z,21.48
2023-02-05T14:10:29.568Z,22.19
2023-02-05T14:13:16.302Z,22.65
2023-02-05T14:15:43.940Z,21.07
2023-02-05T14:18:12.802Z,21.35
2023-02-05T14:20:44.666Z,22.26
2023-02-05T14:23:16.981Z,22.78
2023-02-05T14:26:06.389Z,21.64
2023-02-05T14:28:34.592Z,22.38
2023-02-05T14:31:05.718Z,22.40
2023-02-05T14:33:43.523Z,21.65
2023-02-05T14:36:21.274Z,20.06
2023-02-05T14:39:03.653Z,21.32
2023-02-05T14:41:33.839Z,21.75
2023-02-05T14:44:04.379Z,22.70
2023-02-05T14:46:41.715Z,21.49
2023-02-05T14:49:23.362Z,21.43
2023-02-05T14:51:59.229Z,20.58
2023-02-05T14:54:30.081Z,20.62
2023-02-05T14:57:17.650Z,20.60
2023-02-05T14:59:50.029Z,20.54
2023-02-05T15:02:54.764Z,21.91
2023-02-05T15:05:46.813Z,21.77
2023-02-05T15:08:37.820Z,22.23
2023-02-05T15:11:33.520Z,23.05
2023-02-05T15:14:19.526Z,24.99
2023-02-05T15:17:11.528Z,25.31
2023-02-05T15:19:43.368Z,25.77
2023-02-05T15:22:30.728Z,26.15
2023-02-05T15:24:58.232Z,26.80
2023-02-05T15:27:41.400Z,25.56
2023-02-05T15:30:16.860Z,25.27
2023-02-05T15:32:52.977Z,26.06
2023-02-05T15:35:24.628Z,26.84
2023-02-05T15:38:04.005Z,27.12
2023-02-05T15:40:33.681Z,28.27
2023-02-05T15:43:09.552Z,28.32
2023-02-05T15:45:44.887Z,27.84
2023-02-05T15:48:13.603Z,30.63
2023-02-05T15:50:47.527Z,29.04
2023-02-05T15:53:35.250Z,31.52
2023-02-05T15:56:25.068Z,29.47
2023-02-05T15:58:55.186Z,32.02
2023-02-05T16:01:28.487Z,31.88
2023-02-05T16:03:55.214Z,34.09
2023-02-05T16:06:23.540Z,34.14
2023-02-05T16:08:52.602Z,32.45
2023-02-05T16:11:35.200Z,32.71
2023-02-05T16:14:16.509Z,32.90
2023-02-05T16:17:08.262Z,34.04
2023-02-05T16:19:53.726Z,34.37
2023-02-05T16:22:32.313Z,35.54
2023-02-05T16:25:03.331Z,36.46
2023-02-05T16:27:32.630Z,37.66
2023-02-05T16:30:07.365Z,38.26
2023-02-05T16:32:38.043Z,38.82
2023-02-05T16:35:07.898Z,37.47
2023-02-05T16:37:35.821Z,38.41
2023-02-05T16:40:06.716Z,38.49
2023-02-05T16:42:39.029Z,38.78
2023-02-05T16:45:08.509Z,39.07
2023-02-05T16:47:36.145Z,38.81
2023-02-05T16:50:42.586Z,39.17
2023-02-05T16:53:16.230Z,40.95
2023-02-05T16:55:44.022Z,40.18
2023-02-05T16:58:23.115Z,41.44
2023-02-05T17:01:07.900Z,41.16
2023-02-05T17:03:37.873Z,40.55
2023-02-05T17:06:12.256Z,42.83
2023-02-05T17:08:40.143Z,41.92
2023-02-05T17:11:27.897Z,41.89
2023-02-05T17:14:10.227Z,41.34
2023-02-05T17:16:41.069Z,42.01
2023-02-05T17:19:24.433Z,43.86
2023-02-05T17:22:13.849Z,42.32
2023-02-05T17:24:41.738Z,45.73
2023-02-05T17:27:28.466Z,44.35
2023-02-05T17:29:56.803Z,44.24
2023-02-05T17:32:24.004Z,45.25
2023-02-05T17:34:50.571Z,46.15
2023-02-05T17:37:17.183Z,45.39
2023-02-05T17:39:43.970Z,43.78
2023-02-05T17:42:23.516Z,45.63
2023-02-05T17:44:51.085Z,44.00
2023-02-05T17:47:18.658Z,44.63
2023-02-05T17:49:45.234Z,46.78
2023-02-05T17:52:12.235Z,47.40
2023-02-05T17:54:38.897Z,46.67
2023-02-05T17:57:19.726Z,46.83
2023-02-05T17:59:47.413Z,46.73
2023-02-05T18:02:15.368Z,48.77
2023-02-05T18:04:42.445Z,48.14
2023-02-05T18:07:39.373Z,48.72
2023-02-05T18:10:06.737Z,48.10
2023-02-05T18:12:33.782Z,47.15
2023-02-05T18:15:00.371Z,47.31
2023-02-05T18:17:26.970Z,47.63
2023-02-05T18:19:53.615Z,48.72
2023-02-05T18:22:20.327Z,48.05
2023-02-05T18:24:46.857Z,48.30
2023-02-05T18:27:13.501Z,50.50
2023-02-05T18:29:41.723Z,49.64
2023-02-05T18:32:09.971Z,47.42
2023-02-05T18:34:36.580Z,50.05
2023-02-05T18:37:03.172Z,49.90
2023-02-05T18:39:29.812Z,51.60
2023-02-05T18:41:57.561Z,50.53
2023-02-05T18:44:25.700Z,50.71
2023-02-05T18:46:52.689Z,49.87
2023-02-05T18:49:19.275Z,52.36
2023-02-05T18:51:46.053Z,50.99
2023-02-05T18:54:12.652Z,51.06
2023-02-05T18:56:39.296Z,53.76
2023-02-05T18:59:07.889Z,53.01
2023-02-05T19:01:38.069Z,54.28
2023-02-05T19:04:08.163Z,54.79
2023-02-05T19:06:35.253Z,52.80
2023-02-05T19:09:02.659Z,55.65
2023-02-05T19:11:30.466Z,54.50
2023-02-05T19:13:58.701Z,53.78
2023-02-05T19:16:26.905Z,56.62
2023-02-05T19:18:53.684Z,54.08
2023-02-05T19:21:21.821Z,57.14
2023-02-05T19:23:54.234Z,55.72
2023-02-05T19:26:24.026Z,56.24
2023-02-05T19:28:56.811Z,57.02
2023-02-05T19:31:26.161Z,56.63
2023-02-05T19:33:52.970Z,57.14
2023-02-05T19:36:22.633Z,59.48
2023-02-05T19:38:49.277Z,57.91
2023-02-05T19:41:18.440Z,56.70
2023-02-05T19:43:50.883Z,60.01
2023-02-05T19:46:19.589Z,61.69
2023-02-05T19:48:46.930Z,62.25
2023-02-05T19:51:14.859Z,61.87
2023-02-05T19:53:44.046Z,60.73
2023-02-05T19:56:17.199Z,61.02
2023-02-05T19:58:47.632Z,63.03
2023-02-05T20:01:23.752Z,59.93
2023-02-05T20:04:17.146Z,61.75
2023-02-05T20:06:46.109Z,61.45
2023-02-05T20:09:14.098Z,63.15
2023-02-05T20:11:42.507Z,62.89
2023-02-05T20:14:10.491Z,60.22
2023-02-05T20:16:40.446Z,60.02
2023-02-05T20:19:09.631Z,61.04
2023-02-05T20:21:37.192Z,64.51
2023-02-05T20:24:04.666Z,66.39
2023-02-05T20:26:31.848Z,63.71
2023-02-05T20:29:17.051Z,64.78
2023-02-05T20:31:47.891Z,63.63
2023-02-05T20:34:21.957Z,65.70
2023-02-05T20:36:51.448Z,66.01
2023-02-05T20:39:19.222Z,65.86
2023-02-05T20:41:47.614Z,65.69
2023-02-05T20:44:14.720Z,63.42
2023-02-05T20:46:41.349Z,66.14
2023-02-05T20:49:09.048Z,65.22
2023-02-05T20:51:36.536Z,64.92
2023-02-05T20:54:03.904Z,66.05
2023-02-05T20:56:31.642Z,65.73
2023-02-05T20:58:59.647Z,65.00
2023-02-05T21:01:28.026Z,67.90
2023-02-05T21:04:00.296Z,70.10
2023-02-05T21:06:29.904Z,69.67
2023-02-05T21:08:56.738Z,66.91
2023-02-05T21:11:24.618Z,68.56
2023-02-05T21:13:52.003Z,70.52
2023-02-05T21:16:21.353Z,70.53
2023-02-05T21:18:49.165Z,70.49
2023-02-05T21:21:21.871Z,71.21
2023-02-05T21:23:49.090Z,69.33
2023-02-05T21:26:21.149Z,71.67
2023-02-05T21:28:47.884Z,73.22
2023-02-05T21:31:15.002Z,72.60
2023-02-05T21:33:41.624Z,72.19
2023-02-05T21:36:10.793Z,72.57
2023-02-05T21:38:42.374Z,73.28
2023-02-05T21:41:17.868Z,72.35
2023-02-05T21:43:49.646Z,73.00
2023-02-05T21:46:16.340Z,73.40
2023-02-05T21:48:46.630Z,73.99
2023-02-05T21:51:15.147Z,73.76
2023-02-05T21:53:42.462Z,73.15
2023-02-05T21:56:11.361Z,73.46
2023-02-05T21:58:39.502Z,72.27
2023-02-05T22:01:14.869Z,73.38
2023-02-05T22:03:42.988Z,73.17
2023-02-05T22:06:09.620Z,72.51
2023-02-05T22:08:38.028Z,73.05
2023-02-05T22:11:06.664Z,73.99
2023-02-05T22:13:35.241Z,75.67
2023-02-05T22:16:07.844Z,76.03
2023-02-05T22:18:35.618Z,75.16
2023-02-05T22:21:22.809Z,74.74
2023-02-05T22:23:51.577Z,74.43
2023-02-05T22:26:20.363Z,74.17
2023-02-05T22:28:47.244Z,74.41
2023-02-05T22:31:16.540Z,75.94
2023-02-05T22:33:45.885Z,77.09
2023-02-05T22:36:13.915Z,77.54
2023-02-05T22:38:42.185Z,78.35
2023-02-05T22:41:14.954Z,78.41
2023-02-05T22:43:42.151Z,78.03
2023-02-05T22:46:12.297Z,78.58
2023-02-05T22:48:40.940Z,77.41
2023-02-05T22:51:10.636Z,77.00
2023-02-05T22:53:37.496Z,77.43
2023-02-05T22:56:10.358Z,77.29
2023-02-05T22:58:42.134Z,77.97
2023-02-05T23:01:08.999Z,78.09
2023-02-05T23:03:36.218Z,78.63
2023-02-05T23:06:11.516Z,77.91
2023-02-05T23:08:38.643Z,77.26
2023-02-05T23:11:10.601Z,77.16
2023-02-05T23:13:38.557Z,79.14
2023-02-05T23:16:13.455Z,79.23
2023-02-05T23:18:41.798Z,79.40
2023-02-05T23:21:18.760Z,80.28
2023-02-05T23:23:46.351Z,80.16
2023-02-05T23:26:19.608Z,80.29
2023-02-05T23:28:47.443Z,80.69
2023-02-05T23:31:14.309Z,80.79
2023-02-05T23:33:41.187Z,81.57
2023-02-05T23:36:08.967Z,80.64
2023-02-05T23:38:36.003Z,80.25
2023-02-05T23:41:03.594Z,80.58
2023-02-05T23:43:32.788Z,79.42
2023-02-05T23:45:59.926Z,79.16
2023-02-05T23:48:26.664Z,79.49
2023-02-05T23:50:54.998Z,79.98
2023-02-05T23:53:21.677Z,80.76
2023-02-05T23:55:49.653Z,80.37
2023-02-05T23:58:18.148Z,80.43
